Time;durP1;ratioP1;P1;durP2;ratioP2;P2;SDS_P1;SDS_P2;PMS_P1;PMS_P2;Temp;Humidity;BMP_temperature;BMP_pressure;BME280_temperature;BME280_humidity;BME280_pressure;Samples;Min_cycle;Max_cycle;Signal;HPM_P1;HPM_P2
2022/07/26 00:01:47;;;;;;;8.55;2.50;;;;;;;21.12;63.91;101196.06;5129659;28;20542;-56
2022/07/26 00:04:15;;;;;;;10.55;2.38;;;;;;;21.15;63.73;101197.34;5133669;28;20043;-54
2022/07/26 00:06:43;;;;;;;11.57;2.83;;;;;;;21.11;63.84;101202.72;5133760;28;20051;-56
2022/07/26 00:09:10;;;;;;;10.98;3.03;;;;;;;21.12;63.93;101212.69;5107032;28;20490;-56
2022/07/26 00:11:38;;;;;;;9.52;2.50;;;;;;;21.11;64.02;101197.19;5123081;28;20051;-55
2022/07/26 00:14:07;;;;;;;5.10;2.03;;;;;;;21.12;63.93;101198.81;5115821;28;20106;-54
2022/07/26 00:16:35;;;;;;;10.93;2.90;;;;;;;21.08;64.07;101203.41;5133732;28;20043;-53
2022/07/26 00:19:06;;;;;;;12.57;3.08;;;;;;;21.07;64.24;101201.78;5130058;28;20035;-55
2022/07/26 00:21:35;;;;;;;12.55;2.83;;;;;;;21.03;64.39;101206.34;5118672;28;20043;-55
2022/07/26 00:24:07;;;;;;;11.88;2.58;;;;;;;21.06;64.33;101200.94;5117562;28;20120;-56
2022/07/26 00:26:35;;;;;;;12.55;2.90;;;;;;;21.03;64.46;101204.38;5125727;28;20043;-54
2022/07/26 00:29:04;;;;;;;10.27;2.35;;;;;;;21.03;64.51;101201.59;5079904;28;20031;-56
2022/07/26 00:31:32;;;;;;;8.68;3.00;;;;;;;20.98;64.76;101207.34;5123956;28;20139;-55
2022/07/26 00:34:00;;;;;;;7.03;2.65;;;;;;;21.00;64.55;101202.28;5124158;28;20051;-54
2022/07/26 00:36:28;;;;;;;8.55;2.60;;;;;;;21.02;64.79;101204.69;5131775;28;20050;-53
2022/07/26 00:38:56;;;;;;;10.05;3.10;;;;;;;21.01;64.94;101208.63;5127539;28;20468;-54
2022/07/26 00:41:23;;;;;;;12.15;3.10;;;;;;;21.00;65.01;101218.09;5130159;28;20046;-53
2022/07/26 00:43:58;;;;;;;13.70;3.45;;;;;;;20.96;65.06;101217.91;5090223;28;20044;-56
2022/07/26 00:46:26;;;;;;;10.25;3.10;;;;;;;20.91;65.55;101214.53;5106629;28;20039;-56
2022/07/26 00:48:54;;;;;;;13.88;3.08;;;;;;;20.87;65.85;101216.31;5128726;28;20091;-55
2022/07/26 00:51:21;;;;;;;9.93;3.28;;;;;;;20.86;65.79;101212.72;5114622;28;20065;-56
2022/07/26 00:53:49;;;;;;;9.57;2.83;;;;;;;20.87;65.83;101217.13;5121264;28;20035;-55
2022/07/26 00:56:17;;;;;;;11.30;3.38;;;;;;;20.84;65.78;101210.28;5114802;28;20410;-54
2022/07/26 00:58:45;;;;;;;10.52;3.50;;;;;;;20.84;65.93;101209.47;5115825;27;20502;-49
2022/07/26 01:01:13;;;;;;;10.25;3.10;;;;;;;20.82;65.87;101207.03;5128603;27;20047;-54
2022/07/26 01:03:41;;;;;;;11.23;3.38;;;;;;;20.79;66.04;101206.88;5103472;27;20140;-54
2022/07/26 01:06:09;;;;;;;11.75;3.42;;;;;;;20.73;66.31;101208.97;5137051;27;20058;-52
2022/07/26 01:08:37;;;;;;;13.25;3.00;;;;;;;20.72;66.55;101207.38;5116588;27;20045;-54
2022/07/26 01:11:04;;;;;;;13.70;3.05;;;;;;;20.74;66.27;101210.63;5107679;27;20045;-54
2022/07/26 01:13:33;;;;;;;8.50;2.63;;;;;;;20.76;66.42;101199.22;5113236;27;20493;-50
2022/07/26 01:16:02;;;;;;;9.48;3.13;;;;;;;20.76;66.52;101197.28;5123794;27;20032;-53
2022/07/26 01:18:30;;;;;;;10.20;3.25;;;;;;;20.75;66.72;101203.94;5136213;27;20404;-56
2022/07/26 01:21:00;;;;;;;9.95;2.88;;;;;;;20.75;66.92;101205.91;5122753;27;20130;-52
2022/07/26 01:23:40;;;;;;;9.15;3.22;;;;;;;20.72;67.02;101199.06;5085937;27;20039;-54
2022/07/26 01:26:07;;;;;;;11.98;3.17;;;;;;;20.73;67.40;101197.09;5122439;27;20070;-56
2022/07/26 01:28:39;;;;;;;13.57;3.75;;;;;;;20.68;67.96;101194.50;5135171;27;20134;-55
2022/07/26 01:31:07;;;;;;;11.73;3.40;;;;;;;20.61;68.19;101203.28;5122436;27;20421;-54
2022/07/26 01:33:35;;;;;;;11.30;3.08;;;;;;;20.64;67.98;101208.19;5136194;27;20078;-54
2022/07/26 01:36:03;;;;;;;10.63;3.20;;;;;;;20.67;67.93;101199.22;5133023;27;20035;-54
2022/07/26 01:38:31;;;;;;;12.20;3.10;;;;;;;20.70;67.93;101206.88;5123483;27;20114;-52
2022/07/26 01:40:59;;;;;;;16.67;4.32;;;;;;;20.62;69.07;101211.28;5130333;27;20031;-54
2022/07/26 01:43:26;;;;;;;7.93;2.95;;;;;;;20.56;69.12;101203.47;5104050;27;20039;-56
2022/07/26 01:45:54;;;;;;;12.07;3.38;;;;;;;20.55;69.61;101205.44;5125572;27;20059;-55
2022/07/26 01:48:22;;;;;;;13.93;3.67;;;;;;;20.55;69.55;101210.13;5121557;27;20454;-53
2022/07/26 01:50:49;;;;;;;12.23;3.58;;;;;;;20.46;71.00;101209.31;5128936;27;20043;-53
2022/07/26 01:53:17;;;;;;;11.55;3.50;;;;;;;20.39;71.99;101212.56;5130096;27;20043;-53
2022/07/26 01:55:45;;;;;;;13.43;3.50;;;;;;;20.41;73.06;101208.31;5117611;27;20043;-52
2022/07/26 01:58:12;;;;;;;10.93;3.08;;;;;;;20.46;73.51;101209.31;5095405;27;20035;-54
2022/07/26 02:00:40;;;;;;;10.98;3.15;;;;;;;20.48;73.91;101204.25;5121280;27;20044;-54
2022/07/26 02:03:08;;;;;;;10.38;3.00;;;;;;;20.49;73.75;101216.94;5129848;27;20043;-53
2022/07/26 02:05:36;;;;;;;11.63;3.30;;;;;;;20.46;74.46;101215.66;5118897;27;20485;-52
2022/07/26 02:08:04;;;;;;;10.35;3.33;;;;;;;20.44;74.91;101212.38;5115659;28;20090;-54
2022/07/26 02:13:19;;;;;;;10.43;3.20;;;;;;;20.43;75.22;101210.78;5129216;27;20040;-57
2022/07/26 02:15:47;;;;;;;11.57;3.20;;;;;;;20.44;75.12;101223.47;5129679;27;20043;-53
2022/07/26 02:18:15;;;;;;;11.40;3.38;;;;;;;20.45;74.89;101227.88;5120790;27;20469;-51
2022/07/26 02:20:43;;;;;;;8.75;2.70;;;;;;;20.47;75.19;101219.22;5125874;27;20485;-56
2022/07/26 02:23:10;;;;;;;9.43;3.13;;;;;;;20.47;75.58;101227.53;5126446;27;20051;-51
2022/07/26 02:25:38;;;;;;;11.52;3.58;;;;;;;20.46;75.25;101220.38;5133012;27;20050;-54
2022/07/26 02:28:06;;;;;;;12.13;2.88;;;;;;;20.49;74.44;101222.47;5131552;27;20035;-54
2022/07/26 02:30:33;;;;;;;13.23;3.95;;;;;;;20.45;75.20;101225.09;5124501;27;20054;-54
2022/07/26 02:33:02;;;;;;;9.65;2.90;;;;;;;20.45;75.02;101225.09;5114983;27;20507;-56
2022/07/26 02:35:30;;;;;;;9.55;3.10;;;;;;;20.45;75.33;101227.06;5133769;27;20052;-57
2022/07/26 02:38:06;;;;;;;12.95;3.55;;;;;;;20.45;75.24;101227.88;5100647;28;20035;-56
2022/07/26 02:40:35;;;;;;;10.55;3.22;;;;;;;20.46;74.89;101226.72;5119784;27;20040;-54
2022/07/26 02:43:03;;;;;;;9.38;3.13;;;;;;;20.45;75.19;101230.63;5132094;27;20130;-58
2022/07/26 02:45:31;;;;;;;10.07;2.90;;;;;;;20.38;75.82;101224.78;5113259;27;20393;-53
2022/07/26 02:47:59;;;;;;;7.93;2.78;;;;;;;20.39;75.57;101229.97;5116673;27;20043;-56
2022/07/26 02:50:28;;;;;;;12.98;3.40;;;;;;;20.39;75.96;101231.94;5114596;27;20077;-52
2022/07/26 02:52:56;;;;;;;12.68;3.50;;;;;;;20.35;76.22;101231.78;5123731;27;20035;-53
2022/07/26 02:55:25;;;;;;;12.32;3.30;;;;;;;20.34;76.65;101234.84;5115621;27;20045;-55
2022/07/26 02:57:53;;;;;;;11.05;3.47;;;;;;;20.32;76.74;101234.38;5100246;27;20065;-51
2022/07/26 03:00:24;;;;;;;9.43;3.40;;;;;;;20.29;76.82;101238.59;5135146;27;20066;-57
2022/07/26 03:02:52;;;;;;;11.73;3.15;;;;;;;20.31;76.77;101241.06;5127132;27;20080;-57
2022/07/26 03:05:20;;;;;;;10.60;3.55;;;;;;;20.31;76.73;101235.50;5100050;27;20043;-54
2022/07/26 03:07:48;;;;;;;11.25;3.45;;;;;;;20.28;76.93;101242.50;5121599;27;20061;-54
2022/07/26 03:10:16;;;;;;;9.05;3.30;;;;;;;20.26;77.04;101244.78;5116699;27;20039;-57
2022/07/26 03:12:44;;;;;;;10.70;3.60;;;;;;;20.26;77.15;101243.97;5128531;27;20043;-53
2022/07/26 03:15:11;;;;;;;16.15;4.40;;;;;;;20.22;77.68;101246.56;5133011;27;20031;-55
2022/07/26 03:17:39;;;;;;;16.83;4.18;;;;;;;20.21;77.59;101247.72;5124131;27;20054;-54
2022/07/26 03:20:07;;;;;;;13.55;3.78;;;;;;;20.18;77.88;101249.19;5125218;27;20039;-54
2022/07/26 03:22:35;;;;;;;13.57;4.43;;;;;;;20.15;77.96;101254.53;5130033;27;20038;-54
2022/07/26 03:25:03;;;;;;;14.93;4.13;;;;;;;20.15;78.21;101257.28;5134615;27;20058;-50
2022/07/26 03:27:30;;;;;;;11.93;3.55;;;;;;;20.15;78.29;101265.59;5126906;27;20039;-54
2022/07/26 03:29:58;;;;;;;11.88;3.75;;;;;;;20.12;78.86;101260.72;5134459;27;20482;-51
2022/07/26 03:32:26;;;;;;;11.20;3.50;;;;;;;20.11;78.75;101259.09;5133676;27;20545;-52
2022/07/26 03:34:54;;;;;;;11.23;3.67;;;;;;;20.18;77.70;101265.78;5133983;27;20039;-52
2022/07/26 03:37:22;;;;;;;9.38;3.40;;;;;;;20.17;78.28;101261.34;5121217;27;20137;-52
2022/07/26 03:39:49;;;;;;;12.75;3.80;;;;;;;20.16;78.46;101267.22;5128404;27;20042;-52
2022/07/26 03:42:17;;;;;;;16.10;4.63;;;;;;;20.13;78.31;101267.84;5125005;27;20074;-53
2022/07/26 03:44:45;;;;;;;15.10;4.60;;;;;;;20.10;78.73;101266.56;5122269;27;20050;-50
2022/07/26 03:47:12;;;;;;;13.15;4.20;;;;;;;20.08;78.91;101277.13;5130688;27;20046;-50
2022/07/26 03:49:40;;;;;;;18.70;4.95;;;;;;;20.04;79.10;101278.09;5133866;27;20039;-52
2022/07/26 03:52:09;;;;;;;17.23;4.35;;;;;;;20.02;79.46;101274.84;5120193;27;20035;-53
2022/07/26 03:54:37;;;;;;;14.55;4.53;;;;;;;20.03;79.58;101284.75;5115376;28;20046;-53
2022/07/26 03:57:04;;;;;;;16.70;4.47;;;;;;;20.03;79.51;101279.22;5087859;28;20055;-53
2022/07/26 03:59:32;;;;;;;16.70;4.35;;;;;;;19.98;79.76;101280.19;5126407;28;20043;-51
2022/07/26 04:02:00;;;;;;;18.67;4.32;;;;;;;19.94;79.95;101280.03;5132732;28;20036;-54
2022/07/26 04:04:28;;;;;;;12.95;4.45;;;;;;;19.95;79.75;101284.41;5131132;28;20405;-53
2022/07/26 04:06:55;;;;;;;15.80;4.35;;;;;;;19.97;79.52;101279.38;5098823;28;20047;-53
2022/07/26 04:09:23;;;;;;;12.90;4.10;;;;;;;20.00;79.16;101289.78;5122870;28;20051;-52
2022/07/26 04:11:51;;;;;;;16.55;4.15;;;;;;;20.03;79.21;101290.28;5133246;28;20035;-51
2022/07/26 04:14:18;;;;;;;17.08;4.93;;;;;;;19.98;79.79;101283.75;5134065;28;20532;-53
2022/07/26 04:16:46;;;;;;;14.07;4.60;;;;;;;19.97;79.68;101278.56;5123723;28;20383;-55
2022/07/26 04:19:14;;;;;;;15.63;5.07;;;;;;;19.93;80.21;101281.16;5122002;28;20047;-54
2022/07/26 04:21:41;;;;;;;11.50;4.03;;;;;;;19.92;80.36;101290.59;5114057;28;20040;-52
2022/07/26 04:24:09;;;;;;;15.20;4.32;;;;;;;19.94;80.39;101290.25;5132637;28;20035;-49
2022/07/26 04:26:37;;;;;;;16.23;5.00;;;;;;;19.93;80.36;101297.75;5133657;28;20043;-52
2022/07/26 04:29:05;;;;;;;11.35;3.67;;;;;;;19.92;79.93;101296.13;5125436;28;20035;-54
2022/07/26 04:31:34;;;;;;;11.98;3.70;;;;;;;19.96;79.85;101307.34;5118363;28;20061;-55
2022/07/26 04:34:03;;;;;;;14.60;4.85;;;;;;;19.91;80.50;101300.00;5130051;27;20378;-57
2022/07/26 04:36:31;;;;;;;18.02;5.15;;;;;;;19.92;80.49;101303.63;5104609;27;20035;-53
2022/07/26 04:38:59;;;;;;;14.30;4.03;;;;;;;19.92;80.56;101300.84;5114849;28;20043;-53
2022/07/26 04:41:27;;;;;;;14.50;4.47;;;;;;;19.95;80.32;101303.78;5129084;27;20047;-54
2022/07/26 04:43:55;;;;;;;17.08;4.32;;;;;;;19.93;80.99;101302.47;5126791;27;20043;-51
2022/07/26 04:46:23;;;;;;;16.08;3.97;;;;;;;19.93;80.88;101314.34;5132005;27;20044;-53
2022/07/26 04:48:51;;;;;;;13.57;4.18;;;;;;;19.90;81.23;101303.91;5109558;28;20043;-53
2022/07/26 04:51:19;;;;;;;15.95;5.15;;;;;;;19.93;81.07;101306.03;5133005;27;20051;-53
2022/07/26 04:53:47;;;;;;;15.13;4.38;;;;;;;19.93;81.22;101305.22;5136546;27;20042;-58
2022/07/26 04:56:14;;;;;;;15.52;4.40;;;;;;;19.91;81.12;101310.25;5137379;27;20038;-54
2022/07/26 04:58:42;;;;;;;16.27;4.65;;;;;;;19.93;81.16;101313.53;5133787;27;20043;-57
2022/07/26 05:01:10;;;;;;;13.95;4.75;;;;;;;19.88;81.62;101306.19;5123801;27;20406;-54
2022/07/26 05:03:38;;;;;;;12.70;4.05;;;;;;;19.89;81.24;101313.38;5135098;27;20040;-52
2022/07/26 05:06:06;;;;;;;15.98;5.00;;;;;;;19.89;81.36;101312.53;5132803;27;20039;-50
2022/07/26 05:08:34;;;;;;;15.48;4.20;;;;;;;19.87;81.61;101321.16;5118813;27;20049;-51
2022/07/26 05:11:02;;;;;;;14.88;4.50;;;;;;;19.87;81.28;101320.34;5129216;27;20039;-53
2022/07/26 05:13:30;;;;;;;16.50;4.70;;;;;;;19.85;81.39;101325.38;5130898;27;20035;-55
2022/07/26 05:15:59;;;;;;;10.80;3.80;;;;;;;19.85;81.39;101323.44;5123881;27;20031;-52
2022/07/26 05:18:29;;;;;;;13.07;3.78;;;;;;;19.88;80.98;101322.78;5115658;27;20048;-53
2022/07/26 05:21:12;;;;;;;15.88;4.28;;;;;;;19.88;81.05;101333.03;5119114;27;20035;-57
2022/07/26 05:23:40;;;;;;;18.75;4.40;;;;;;;19.86;81.52;101329.75;5130947;27;20045;-53
2022/07/26 05:26:07;;;;;;;15.40;4.25;;;;;;;19.91;80.53;101324.91;5136551;27;20039;-56
2022/07/26 05:28:38;;;;;;;16.38;4.60;;;;;;;19.89;80.87;101329.13;5117885;27;20050;-55
2022/07/26 05:31:06;;;;;;;13.30;3.90;;;;;;;19.86;81.12;101333.34;5133030;27;20088;-55
2022/07/26 05:33:34;;;;;;;12.27;4.28;;;;;;;19.86;81.21;101340.81;5127105;27;20046;-55
2022/07/26 05:36:02;;;;;;;12.48;3.95;;;;;;;19.90;80.87;101330.78;5134760;27;20039;-54
2022/07/26 05:38:29;;;;;;;13.57;4.13;;;;;;;19.92;80.83;101343.13;5123022;27;20424;-55
2022/07/26 05:40:57;;;;;;;20.77;4.38;;;;;;;19.93;80.59;101342.00;5117707;27;20130;-51
2022/07/26 05:43:26;;;;;;;15.88;4.40;;;;;;;19.96;80.70;101346.06;5129417;27;20046;-53
2022/07/26 05:46:08;;;;;;;15.50;4.40;;;;;;;19.94;80.60;101351.94;5121201;27;20039;-54
2022/07/26 05:48:37;;;;;;;20.45;4.55;;;;;;;19.89;80.87;101340.19;5127745;27;20451;-50
2022/07/26 05:51:05;;;;;;;16.85;4.22;;;;;;;19.82;81.17;101345.34;4418212;27;10000791;-57
2022/07/26 05:53:33;;;;;;;11.25;3.90;;;;;;;19.79;81.28;101352.34;5117767;27;20035;-52
2022/07/26 05:56:00;;;;;;;16.77;4.28;;;;;;;19.82;81.17;101339.81;5117169;27;20047;-53
2022/07/26 05:58:28;;;;;;;12.13;4.10;;;;;;;19.80;81.12;101342.94;5115838;27;20051;-51
2022/07/26 06:00:55;;;;;;;10.32;3.50;;;;;;;19.85;81.17;101351.06;5110776;27;20748;-52
2022/07/26 06:03:23;;;;;;;14.05;3.78;;;;;;;19.90;81.41;101355.66;5132344;27;20046;-47
2022/07/26 06:05:53;;;;;;;13.35;3.97;;;;;;;19.98;80.80;101352.09;5132555;27;20043;-50
2022/07/26 06:08:21;;;;;;;17.15;4.15;;;;;;;20.04;80.53;101361.91;5129404;27;20054;-51
2022/07/26 06:10:49;;;;;;;12.75;3.30;;;;;;;20.10;80.40;101362.56;5104876;28;20405;-50
2022/07/26 06:13:17;;;;;;;13.18;3.85;;;;;;;20.08;79.88;101364.84;5125812;27;20035;-52
2022/07/26 06:15:45;;;;;;;16.75;4.30;;;;;;;20.03;80.16;101373.28;5095697;27;20043;-51
2022/07/26 06:18:13;;;;;;;11.30;3.83;;;;;;;19.91;80.63;101371.91;5101869;28;20082;-53
2022/07/26 06:20:46;;;;;;;14.52;4.20;;;;;;;19.86;81.10;101376.78;5125559;27;20130;-52
2022/07/26 06:23:14;;;;;;;12.32;3.70;;;;;;;19.86;81.33;101374.81;5102099;28;20052;-55
2022/07/26 06:25:43;;;;;;;16.38;4.68;;;;;;;19.94;81.12;101373.22;5111531;27;20035;-52
2022/07/26 06:28:11;;;;;;;14.38;4.68;;;;;;;19.92;80.65;101373.56;5132257;27;20043;-50
2022/07/26 06:30:39;;;;;;;12.30;3.80;;;;;;;19.91;80.89;101382.97;5130405;27;20043;-51
2022/07/26 06:33:08;;;;;;;12.82;3.70;;;;;;;19.99;80.51;101385.00;5126245;27;20071;-49
2022/07/26 06:35:37;;;;;;;15.32;4.60;;;;;;;19.99;80.71;101385.00;5135569;27;20039;-48
2022/07/26 06:38:06;;;;;;;9.05;3.47;;;;;;;20.04;80.52;101372.16;5117254;27;20035;-49
2022/07/26 06:40:34;;;;;;;10.13;3.35;;;;;;;20.10;79.70;101374.44;5117233;27;20041;-50
2022/07/26 06:43:02;;;;;;;12.30;3.83;;;;;;;20.16;79.28;101378.72;5105506;27;20507;-54
2022/07/26 06:45:32;;;;;;;14.10;4.30;;;;;;;20.22;78.78;101384.91;5125174;27;20493;-53
2022/07/26 06:48:00;;;;;;;14.23;4.35;;;;;;;20.17;78.95;101382.28;5130359;27;20047;-52
2022/07/26 06:50:28;;;;;;;13.40;3.72;;;;;;;20.16;79.11;101389.78;5134405;27;20518;-50
2022/07/26 06:52:55;;;;;;;11.15;3.70;;;;;;;20.12;79.03;101387.97;5102943;28;20046;-51
2022/07/26 06:55:23;;;;;;;10.77;3.65;;;;;;;20.10;79.12;101390.25;5096357;28;20042;-49
2022/07/26 06:57:51;;;;;;;18.58;4.82;;;;;;;20.05;79.46;101387.63;5123984;27;20039;-57
2022/07/26 07:00:19;;;;;;;11.13;3.90;;;;;;;20.04;79.53;101397.88;5119802;27;20477;-56
2022/07/26 07:02:47;;;;;;;9.88;3.15;;;;;;;19.95;79.63;101400.59;5121630;27;20436;-58
2022/07/26 07:05:15;;;;;;;12.73;3.85;;;;;;;19.90;78.02;101408.22;5131970;27;20049;-56
2022/07/26 07:07:42;;;;;;;10.93;3.95;;;;;;;19.85;78.07;101400.84;5134644;27;20116;-56
2022/07/26 07:10:10;;;;;;;13.85;3.63;;;;;;;19.87;78.03;101398.59;5131765;27;20036;-55
2022/07/26 07:12:40;;;;;;;11.85;3.50;;;;;;;19.89;77.42;101401.03;5120527;27;20042;-57
2022/07/26 07:15:08;;;;;;;11.13;4.03;;;;;;;19.93;77.61;101408.38;5135061;27;20035;-55
2022/07/26 07:17:35;;;;;;;21.10;4.03;;;;;;;19.92;77.98;101409.53;5134452;27;20044;-51
2022/07/26 07:20:04;;;;;;;18.05;4.50;;;;;;;19.97;77.49;101403.84;5116532;27;20051;-48
2022/07/26 07:22:32;;;;;;;12.23;3.75;;;;;;;20.05;76.36;101398.69;5121657;27;20043;-50
2022/07/26 07:25:00;;;;;;;10.43;3.28;;;;;;;20.07;76.00;101407.47;5130892;27;20043;-52
2022/07/26 07:27:29;;;;;;;8.45;3.35;;;;;;;20.04;75.88;101403.41;5131823;27;20035;-51
2022/07/26 07:29:57;;;;;;;13.90;3.67;;;;;;;19.94;75.81;101409.19;5125183;27;20044;-55
2022/07/26 07:32:24;;;;;;;12.45;3.60;;;;;;;19.92;75.79;101417.81;5127675;27;20401;-49
2022/07/26 07:34:52;;;;;;;10.23;3.50;;;;;;;19.90;75.62;101406.25;5116152;28;20106;-50
2022/07/26 07:37:20;;;;;;;11.95;4.13;;;;;;;19.89;75.61;101418.47;5122571;27;20433;-50
2022/07/26 07:39:48;;;;;;;13.07;3.42;;;;;;;19.85;76.18;101411.13;5128887;27;20034;-50
2022/07/26 07:42:18;;;;;;;14.45;3.53;;;;;;;19.85;76.69;101414.69;5126338;27;20142;-50
2022/07/26 07:44:46;;;;;;;8.70;3.05;;;;;;;19.90;76.21;101419.28;5123199;27;20039;-51
2022/07/26 07:47:14;;;;;;;12.05;3.53;;;;;;;19.96;75.41;101421.59;5115897;27;20041;-52
2022/07/26 07:49:42;;;;;;;13.57;3.30;;;;;;;19.97;75.25;101417.69;5112946;27;20416;-52
2022/07/26 07:52:09;;;;;;;8.68;3.10;;;;;;;20.06;74.85;101417.75;5125922;27;20037;-50
2022/07/26 07:54:37;;;;;;;9.95;3.20;;;;;;;20.08;75.63;101412.69;5127847;28;20044;-53
2022/07/26 07:57:05;;;;;;;8.90;2.60;;;;;;;20.00;76.92;101430.06;5130934;28;20118;-50
2022/07/26 07:59:32;;;;;;;4.97;2.08;;;;;;;19.85;78.01;101456.16;5113582;28;20043;-51
2022/07/26 08:02:05;;;;;;;6.75;1.80;;;;;;;19.82;78.03;101451.28;5133776;28;20062;-55
2022/07/26 08:04:33;;;;;;;2.22;1.25;;;;;;;19.76;78.08;101452.53;5102634;28;20039;-53
2022/07/26 08:07:01;;;;;;;4.75;1.52;;;;;;;19.64;77.95;101460.53;5111623;28;20058;-48
2022/07/26 08:09:28;;;;;;;3.70;1.42;;;;;;;19.44;79.69;101465.44;5127335;27;20035;-53
2022/07/26 08:12:00;;;;;;;5.70;2.00;;;;;;;19.35;81.59;101473.63;5129859;27;20477;-54
2022/07/26 08:14:28;;;;;;;6.38;1.90;;;;;;;19.27;83.06;101479.09;5135941;27;20039;-55
2022/07/26 08:16:56;;;;;;;7.85;1.83;;;;;;;19.14;83.77;101481.56;5114111;27;20031;-53
2022/07/26 08:19:24;;;;;;;3.75;1.38;;;;;;;19.06;83.65;101474.00;5133593;27;20051;-49
2022/07/26 08:22:07;;;;;;;6.00;1.65;;;;;;;19.12;83.91;101478.31;5137636;27;20409;-56
2022/07/26 08:24:35;;;;;;;5.22;1.50;;;;;;;19.27;83.84;101474.38;5093674;28;20035;-55
2022/07/26 08:27:03;;;;;;;3.92;1.40;;;;;;;19.35;82.88;101484.69;5107600;28;20119;-53
2022/07/26 08:29:30;;;;;;;4.20;1.17;;;;;;;19.28;82.76;101491.78;5132046;27;20050;-57
2022/07/26 08:31:58;;;;;;;2.60;1.50;;;;;;;19.23;83.17;101492.69;5134927;27;20051;-55
2022/07/26 08:34:26;;;;;;;4.25;1.15;;;;;;;19.30;83.28;101495.03;5130651;27;20046;-51
2022/07/26 08:36:53;;;;;;;2.17;0.95;;;;;;;19.42;83.08;101497.28;5110512;28;20484;-52
2022/07/26 08:39:41;;;;;;;3.63;1.00;;;;;;;19.37;81.11;101500.97;5134122;27;20051;-51
2022/07/26 08:42:16;;;;;;;4.68;1.13;;;;;;;19.30;82.32;101495.03;5128904;27;20028;-52
2022/07/26 08:44:50;;;;;;;2.15;1.10;;;;;;;19.31;82.98;101505.81;5117180;27;20400;-51
2022/07/26 08:47:20;;;;;;;2.40;1.05;;;;;;;19.22;83.09;101504.91;5134692;27;20039;-51
2022/07/26 08:50:07;;;;;;;1.75;1.17;;;;;;;19.14;84.64;101498.13;5137110;27;20042;-55
2022/07/26 08:52:37;;;;;;;4.05;1.77;;;;;;;19.17;84.53;101502.25;5137234;27;20383;-57
2022/07/26 08:55:05;;;;;;;4.10;1.13;;;;;;;19.13;84.54;101507.56;5111483;28;20051;-54
2022/07/26 08:57:33;;;;;;;2.97;1.13;;;;;;;19.15;84.62;101519.13;5108639;27;20070;-56
2022/07/26 09:00:22;;;;;;;5.03;1.20;;;;;;;19.16;84.47;101512.47;5109676;27;20567;-52
2022/07/26 09:02:50;;;;;;;4.47;1.60;;;;;;;19.21;84.02;101522.59;5119144;27;20039;-48
2022/07/26 09:05:19;;;;;;;4.88;1.60;;;;;;;19.28;84.29;101528.50;5083868;28;20097;-50
2022/07/26 09:07:47;;;;;;;6.63;1.67;;;;;;;19.23;83.60;101525.03;5109063;28;20058;-50
2022/07/26 09:10:15;;;;;;;6.07;1.58;;;;;;;19.16;83.30;101534.56;5116998;28;20047;-51
2022/07/26 09:12:43;;;;;;;3.13;1.58;;;;;;;19.16;83.59;101529.03;5126067;28;20036;-48
2022/07/26 09:15:19;;;;;;;4.68;1.23;;;;;;;19.24;83.30;101532.19;5081003;28;20049;-49
2022/07/26 09:17:50;;;;;;;5.22;1.98;;;;;;;19.23;81.97;101533.34;5130183;28;20410;-50
2022/07/26 09:20:19;;;;;;;3.38;1.50;;;;;;;19.22;82.33;101539.97;5112429;28;20043;-50
2022/07/26 09:23:07;;;;;;;6.20;1.80;;;;;;;19.28;82.06;101534.03;5118826;28;20035;-50
2022/07/26 09:25:36;;;;;;;4.47;1.50;;;;;;;19.35;81.93;101541.91;5133813;28;20114;-50
2022/07/26 09:28:24;;;;;;;4.43;1.38;;;;;;;19.37;81.66;101542.41;5127880;28;20039;-48
2022/07/26 09:30:54;;;;;;;5.45;1.70;;;;;;;19.39;81.42;101542.94;5094472;28;20405;-48
2022/07/26 09:33:22;;;;;;;5.05;1.83;;;;;;;19.40;80.68;101549.28;5110026;28;20067;-48
2022/07/26 09:36:05;;;;;;;6.80;2.15;;;;;;;19.37;80.83;101550.72;5127623;28;20046;-47
2022/07/26 09:38:47;;;;;;;5.80;2.00;;;;;;;19.27;80.27;101557.28;5112957;28;20031;-48
2022/07/26 09:41:28;;;;;;;4.38;1.70;;;;;;;19.20;80.67;101554.13;5134985;28;20039;-49
2022/07/26 09:44:00;;;;;;;6.10;1.88;;;;;;;19.23;81.13;101558.19;5133655;28;20050;-51
2022/07/26 09:46:29;;;;;;;7.65;2.40;;;;;;;19.30;81.66;101561.38;5097053;28;20035;-50
2022/07/26 09:49:05;;;;;;;7.75;2.22;;;;;;;19.41;80.95;101562.78;5100454;28;20036;-49
2022/07/26 09:51:42;;;;;;;7.60;2.28;;;;;;;19.41;81.05;101564.72;5114614;28;20032;-49
2022/07/26 09:54:17;;;;;;;6.85;2.08;;;;;;;19.46;79.85;101568.19;5135217;28;20038;-50
2022/07/26 09:56:50;;;;;;;6.78;2.08;;;;;;;19.56;78.93;101562.44;5134783;28;20039;-45
2022/07/26 09:59:20;;;;;;;5.18;1.75;;;;;;;19.58;76.85;101562.13;5132263;28;20039;-49
2022/07/26 10:01:50;;;;;;;5.90;2.47;;;;;;;19.59;77.54;101570.09;5125327;28;20401;-51
2022/07/26 10:04:19;;;;;;;6.72;2.45;;;;;;;19.66;76.76;101564.16;5106395;28;20040;-53
2022/07/26 10:06:47;;;;;;;5.28;1.90;;;;;;;19.72;76.78;101574.00;5112332;28;20469;-54
2022/07/26 10:10:10;;;;;;;7.18;1.80;;;;;;;19.71;76.12;101571.56;5132781;27;20148;-52
2022/07/26 10:12:37;;;;;;;;;;;;;;;19.73;76.58;101577.59;5047664;28;20037;-55
2022/07/26 10:15:06;;;;;;;5.22;1.55;;;;;;;19.78;74.47;101563.66;5032482;28;20380;-54
2022/07/26 10:17:40;;;;;;;4.72;1.70;;;;;;;19.83;73.31;101558.00;5047925;28;20045;-50
2022/07/26 10:20:10;;;;;;;4.13;1.55;;;;;;;19.90;73.19;101563.09;5044620;28;20068;-50
2022/07/26 10:22:51;;;;;;;6.68;1.50;;;;;;;19.89;75.26;101564.19;5117924;28;20039;-49
2022/07/26 10:25:18;;;;;;;4.78;1.70;;;;;;;19.93;75.52;101568.81;5131225;27;20046;-49
2022/07/26 10:27:52;;;;;;;6.45;1.90;;;;;;;20.07;74.80;101565.97;5118005;28;20040;-53
2022/07/26 10:30:23;;;;;;;5.38;1.95;;;;;;;20.26;74.52;101557.50;5120475;28;20152;-47
2022/07/26 10:33:01;;;;;;;4.85;1.90;;;;;;;20.38;73.05;101563.25;5116589;27;20557;-53
2022/07/26 10:35:37;;;;;;;5.05;1.55;;;;;;;20.50;72.03;101570.19;5129762;28;20043;-52
2022/07/26 10:38:11;;;;;;;4.63;1.42;;;;;;;20.44;70.40;101572.25;5126490;28;20412;-56
2022/07/26 10:40:58;;;;;;;5.18;1.80;;;;;;;20.40;71.26;101572.06;5124480;27;20080;-54
2022/07/26 10:43:26;;;;;;;5.70;1.80;;;;;;;20.37;72.22;101572.72;4394462;28;10000369;-54
2022/07/26 10:46:17;;;;;;;6.80;1.90;;;;;;;20.34;72.02;101573.31;5105351;28;20069;-53
2022/07/26 10:49:07;;;;;;;4.55;1.75;;;;;;;20.33;71.68;101574.47;5104376;28;20126;-52
2022/07/26 10:51:39;;;;;;;6.78;1.90;;;;;;;20.36;70.66;101576.59;5102579;28;20071;-53
2022/07/26 10:54:10;;;;;;;5.35;1.70;;;;;;;20.38;69.30;101576.28;5097956;28;20478;-55
2022/07/26 10:56:38;;;;;;;5.03;1.95;;;;;;;20.37;69.13;101572.72;5105735;28;20036;-50
2022/07/26 10:59:06;;;;;;;6.20;2.10;;;;;;;20.33;68.63;101580.00;5098329;28;20039;-52
2022/07/26 11:01:39;;;;;;;3.65;1.55;;;;;;;20.29;68.82;101575.41;5105984;28;20054;-51
2022/07/26 11:04:17;;;;;;;4.65;2.17;;;;;;;20.21;70.38;101590.84;5105616;28;20040;-51
2022/07/26 11:06:45;;;;;;;7.53;2.17;;;;;;;20.10;70.80;101597.75;5104470;28;20040;-52
2022/07/26 11:09:13;;;;;;;6.97;1.80;;;;;;;19.93;72.33;101615.81;5105082;28;20043;-52
2022/07/26 11:11:41;;;;;;;5.93;1.67;;;;;;;19.79;73.90;101612.28;5105213;28;20528;-53
2022/07/26 11:14:15;;;;;;;5.82;1.50;;;;;;;19.65;74.80;101614.22;5107039;28;20046;-55
2022/07/26 11:16:46;;;;;;;5.15;1.65;;;;;;;19.63;74.89;101624.78;5102005;28;20032;-56
2022/07/26 11:19:24;;;;;;;7.70;1.77;;;;;;;19.60;76.20;101623.44;5099822;28;20036;-53
2022/07/26 11:21:57;;;;;;;6.60;2.08;;;;;;;19.53;77.69;101621.13;5092701;28;20741;-55
2022/07/26 11:24:25;;;;;;;4.35;1.70;;;;;;;19.52;78.09;101627.75;5079813;28;20128;-54
2022/07/26 11:26:53;;;;;;;3.22;1.20;;;;;;;19.52;78.83;101625.00;5091892;28;20082;-54
2022/07/26 11:29:28;;;;;;;4.95;1.40;;;;;;;19.55;79.12;101626.31;5106613;28;20039;-51
2022/07/26 11:32:21;;;;;;;3.50;1.15;;;;;;;19.55;79.31;101624.41;5091632;28;20047;-51
2022/07/26 11:35:08;;;;;;;4.32;1.50;;;;;;;19.46;77.95;101617.97;5092599;28;20053;-56